sensor_id;sensor_type;location;lat;lon;timestamp;P1;durP1;ratioP1;P2;durP2;ratioP2
24301;SDS011;12421;49.732;20.078;2022-12-29T00:02:27;7.50;;;3.20;;
24301;SDS011;12421;49.732;20.078;2022-12-29T00:12:30;8.20;;;4.30;;
24301;SDS011;12421;49.732;20.078;2022-12-29T00:22:53;7.80;;;4.30;;
24301;SDS011;12421;49.732;20.078;2022-12-29T00:33:16;7.10;;;4.80;;
24301;SDS011;12421;49.732;20.078;2022-12-29T00:43:38;8.10;;;4.70;;
24301;SDS011;12421;49.732;20.078;2022-12-29T00:54:00;8.10;;;5.10;;
24301;SDS011;12421;49.732;20.078;2022-12-29T01:04:03;7.40;;;4.70;;
24301;SDS011;12421;49.732;20.078;2022-12-29T01:14:06;9.80;;;5.00;;
24301;SDS011;12421;49.732;20.078;2022-12-29T01:24:09;6.60;;;4.00;;
24301;SDS011;12421;49.732;20.078;2022-12-29T01:34:12;6.50;;;3.70;;
24301;SDS011;12421;49.732;20.078;2022-12-29T01:54:50;7.00;;;4.00;;
24301;SDS011;12421;49.732;20.078;2022-12-29T02:15:06;6.90;;;4.20;;
24301;SDS011;12421;49.732;20.078;2022-12-29T03:17:06;4.50;;;2.90;;
24301;SDS011;12421;49.732;20.078;2022-12-29T03:27:14;5.00;;;3.00;;
24301;SDS011;12421;49.732;20.078;2022-12-29T03:37:22;6.10;;;3.30;;
24301;SDS011;12421;49.732;20.078;2022-12-29T03:47:30;7.10;;;3.80;;
24301;SDS011;12421;49.732;20.078;2022-12-29T03:57:32;7.10;;;3.60;;
24301;SDS011;12421;49.732;20.078;2022-12-29T04:07:38;10.60;;;3.90;;
24301;SDS011;12421;49.732;20.078;2022-12-29T04:17:42;6.80;;;3.60;;
24301;SDS011;12421;49.732;20.078;2022-12-29T04:27:45;7.40;;;3.70;;
24301;SDS011;12421;49.732;20.078;2022-12-29T04:38:10;5.30;;;3.10;;
24301;SDS011;12421;49.732;20.078;2022-12-29T04:48:14;4.50;;;2.90;;
24301;SDS011;12421;49.732;20.078;2022-12-29T04:58:37;4.20;;;2.60;;
24301;SDS011;12421;49.732;20.078;2022-12-29T05:08:40;4.80;;;3.00;;
24301;SDS011;12421;49.732;20.078;2022-12-29T05:18:43;6.10;;;3.30;;
24301;SDS011;12421;49.732;20.078;2022-12-29T05:28:46;7.50;;;4.80;;
24301;SDS011;12421;49.732;20.078;2022-12-29T05:38:53;7.80;;;4.70;;
24301;SDS011;12421;49.732;20.078;2022-12-29T05:48:56;11.10;;;6.30;;
24301;SDS011;12421;49.732;20.078;2022-12-29T05:59:05;14.10;;;4.40;;
24301;SDS011;12421;49.732;20.078;2022-12-29T06:09:09;6.60;;;4.00;;
24301;SDS011;12421;49.732;20.078;2022-12-29T06:19:13;5.80;;;3.40;;
24301;SDS011;12421;49.732;20.078;2022-12-29T06:29:16;4.80;;;3.10;;
24301;SDS011;12421;49.732;20.078;2022-12-29T06:39:20;5.90;;;3.70;;
24301;SDS011;12421;49.732;20.078;2022-12-29T06:49:35;9.80;;;5.40;;
24301;SDS011;12421;49.732;20.078;2022-12-29T06:59:38;40.50;;;20.10;;
24301;SDS011;12421;49.732;20.078;2022-12-29T07:09:40;8.90;;;4.80;;
24301;SDS011;12421;49.732;20.078;2022-12-29T07:19:43;19.40;;;9.40;;
24301;SDS011;12421;49.732;20.078;2022-12-29T07:29:46;14.20;;;5.50;;
24301;SDS011;12421;49.732;20.078;2022-12-29T07:39:49;12.10;;;5.90;;
24301;SDS011;12421;49.732;20.078;2022-12-29T07:49:52;5.20;;;3.00;;
24301;SDS011;12421;49.732;20.078;2022-12-29T07:59:55;5.90;;;3.50;;
24301;SDS011;12421;49.732;20.078;2022-12-29T08:09:57;8.50;;;4.80;;
24301;SDS011;12421;49.732;20.078;2022-12-29T08:20:00;10.50;;;5.30;;
24301;SDS011;12421;49.732;20.078;2022-12-29T08:30:04;6.50;;;3.60;;
24301;SDS011;12421;49.732;20.078;2022-12-29T08:40:07;11.70;;;8.60;;
24301;SDS011;12421;49.732;20.078;2022-12-29T08:50:11;7.40;;;4.30;;
24301;SDS011;12421;49.732;20.078;2022-12-29T09:00:17;10.40;;;4.40;;
24301;SDS011;12421;49.732;20.078;2022-12-29T09:10:22;7.20;;;3.90;;
24301;SDS011;12421;49.732;20.078;2022-12-29T09:20:25;8.00;;;5.00;;
24301;SDS011;12421;49.732;20.078;2022-12-29T09:30:28;8.50;;;4.30;;
24301;SDS011;12421;49.732;20.078;2022-12-29T09:40:32;8.70;;;4.60;;
24301;SDS011;12421;49.732;20.078;2022-12-29T09:50:35;8.20;;;5.10;;
24301;SDS011;12421;49.732;20.078;2022-12-29T10:10:59;6.90;;;4.60;;
24301;SDS011;12421;49.732;20.078;2022-12-29T10:42:44;8.40;;;4.60;;
24301;SDS011;12421;49.732;20.078;2022-12-29T10:52:53;12.60;;;6.20;;
24301;SDS011;12421;49.732;20.078;2022-12-29T11:13:28;8.30;;;4.60;;
24301;SDS011;12421;49.732;20.078;2022-12-29T11:23:41;7.10;;;4.80;;
24301;SDS011;12421;49.732;20.078;2022-12-29T11:33:44;7.50;;;4.60;;
24301;SDS011;12421;49.732;20.078;2022-12-29T11:44:06;8.30;;;4.40;;
24301;SDS011;12421;49.732;20.078;2022-12-29T11:54:25;7.00;;;3.90;;
24301;SDS011;12421;49.732;20.078;2022-12-29T12:04:34;8.80;;;4.40;;
24301;SDS011;12421;49.732;20.078;2022-12-29T12:14:46;6.20;;;3.70;;
24301;SDS011;12421;49.732;20.078;2022-12-29T12:25:17;5.90;;;3.70;;
24301;SDS011;12421;49.732;20.078;2022-12-29T12:35:36;8.80;;;4.10;;
24301;SDS011;12421;49.732;20.078;2022-12-29T12:46:00;6.90;;;4.40;;
24301;SDS011;12421;49.732;20.078;2022-12-29T12:56:19;8.80;;;4.80;;
24301;SDS011;12421;49.732;20.078;2022-12-29T13:06:53;8.20;;;4.60;;
24301;SDS011;12421;49.732;20.078;2022-12-29T13:17:32;8.30;;;4.70;;
24301;SDS011;12421;49.732;20.078;2022-12-29T13:38:23;7.20;;;5.10;;
24301;SDS011;12421;49.732;20.078;2022-12-29T13:48:49;10.30;;;6.10;;
24301;SDS011;12421;49.732;20.078;2022-12-29T13:59:03;8.80;;;5.20;;
24301;SDS011;12421;49.732;20.078;2022-12-29T14:09:43;15.50;;;10.70;;
24301;SDS011;12421;49.732;20.078;2022-12-29T14:19:53;9.10;;;5.90;;
24301;SDS011;12421;49.732;20.078;2022-12-29T14:29:57;11.90;;;7.20;;
24301;SDS011;12421;49.732;20.078;2022-12-29T14:40:17;12.20;;;8.30;;
24301;SDS011;12421;49.732;20.078;2022-12-29T15:00:48;13.20;;;7.60;;
24301;SDS011;12421;49.732;20.078;2022-12-29T15:11:14;12.10;;;6.50;;
24301;SDS011;12421;49.732;20.078;2022-12-29T15:21:23;13.90;;;7.20;;
24301;SDS011;12421;49.732;20.078;2022-12-29T15:31:32;12.60;;;8.00;;
24301;SDS011;12421;49.732;20.078;2022-12-29T15:41:49;37.30;;;19.00;;
24301;SDS011;12421;49.732;20.078;2022-12-29T15:52:05;13.80;;;9.40;;
24301;SDS011;12421;49.732;20.078;2022-12-29T16:02:10;33.90;;;18.80;;
24301;SDS011;12421;49.732;20.078;2022-12-29T16:12:18;44.60;;;28.00;;
24301;SDS011;12421;49.732;20.078;2022-12-29T16:32:44;71.10;;;37.10;;
24301;SDS011;12421;49.732;20.078;2022-12-29T16:42:49;71.10;;;40.30;;
24301;SDS011;12421;49.732;20.078;2022-12-29T16:52:57;54.40;;;32.60;;
24301;SDS011;12421;49.732;20.078;2022-12-29T17:03:00;47.50;;;27.00;;
24301;SDS011;12421;49.732;20.078;2022-12-29T17:13:05;58.50;;;33.30;;
24301;SDS011;12421;49.732;20.078;2022-12-29T17:23:14;66.70;;;36.80;;
24301;SDS011;12421;49.732;20.078;2022-12-29T17:33:41;72.90;;;37.90;;
24301;SDS011;12421;49.732;20.078;2022-12-29T17:44:18;54.50;;;30.80;;
24301;SDS011;12421;49.732;20.078;2022-12-29T17:54:24;65.30;;;33.30;;
24301;SDS011;12421;49.732;20.078;2022-12-29T18:04:28;62.70;;;33.10;;
24301;SDS011;12421;49.732;20.078;2022-12-29T18:14:31;54.30;;;29.80;;
24301;SDS011;12421;49.732;20.078;2022-12-29T18:24:35;63.10;;;32.90;;
24301;SDS011;12421;49.732;20.078;2022-12-29T18:34:39;50.00;;;27.70;;
24301;SDS011;12421;49.732;20.078;2022-12-29T18:44:42;85.80;;;47.40;;
24301;SDS011;12421;49.732;20.078;2022-12-29T18:54:46;47.40;;;25.70;;
24301;SDS011;12421;49.732;20.078;2022-12-29T19:17:58;31.50;;;18.80;;
24301;SDS011;12421;49.732;20.078;2022-12-29T19:28:24;23.50;;;13.00;;
24301;SDS011;12421;49.732;20.078;2022-12-29T19:38:44;26.70;;;14.40;;
24301;SDS011;12421;49.732;20.078;2022-12-29T19:49:18;30.60;;;17.30;;
24301;SDS011;12421;49.732;20.078;2022-12-29T19:59:24;48.50;;;23.70;;
24301;SDS011;12421;49.732;20.078;2022-12-29T20:09:30;52.40;;;28.80;;
24301;SDS011;12421;49.732;20.078;2022-12-29T20:19:34;63.20;;;31.90;;
24301;SDS011;12421;49.732;20.078;2022-12-29T20:29:39;38.30;;;20.30;;
24301;SDS011;12421;49.732;20.078;2022-12-29T20:39:44;38.10;;;23.50;;
24301;SDS011;12421;49.732;20.078;2022-12-29T20:49:47;95.90;;;42.00;;
24301;SDS011;12421;49.732;20.078;2022-12-29T20:59:50;60.00;;;25.70;;
24301;SDS011;12421;49.732;20.078;2022-12-29T21:09:53;53.60;;;29.10;;
24301;SDS011;12421;49.732;20.078;2022-12-29T21:19:57;45.60;;;24.80;;
24301;SDS011;12421;49.732;20.078;2022-12-29T21:30:00;33.10;;;16.10;;
24301;SDS011;12421;49.732;20.078;2022-12-29T21:40:03;19.80;;;10.20;;
24301;SDS011;12421;49.732;20.078;2022-12-29T21:50:06;12.10;;;7.20;;
24301;SDS011;12421;49.732;20.078;2022-12-29T22:00:10;10.10;;;4.70;;
24301;SDS011;12421;49.732;20.078;2022-12-29T22:10:32;7.70;;;4.30;;
24301;SDS011;12421;49.732;20.078;2022-12-29T22:20:53;8.30;;;4.80;;
24301;SDS011;12421;49.732;20.078;2022-12-29T22:30:56;6.40;;;4.00;;
24301;SDS011;12421;49.732;20.078;2022-12-29T22:40:59;6.00;;;3.40;;
24301;SDS011;12421;49.732;20.078;2022-12-29T22:51:02;5.60;;;3.50;;
24301;SDS011;12421;49.732;20.078;2022-12-29T23:01:06;7.60;;;3.60;;
24301;SDS011;12421;49.732;20.078;2022-12-29T23:11:10;7.10;;;4.00;;
24301;SDS011;12421;49.732;20.078;2022-12-29T23:21:14;6.50;;;3.90;;
24301;SDS011;12421;49.732;20.078;2022-12-29T23:31:19;7.70;;;3.90;;
24301;SDS011;12421;49.732;20.078;2022-12-29T23:41:23;7.40;;;4.30;;
24301;SDS011;12421;49.732;20.078;2022-12-29T23:51:26;8.20;;;4.50;;
